EHAM

Amsterdam Schiphol Airport

Amsterdam, The Netherlands
METAR EHAM 182325Z 20008KT 9999 FEW018 BKN038 18/15 Q1021 NOSIG
Observed Flight Rules
Aug-18 @ 23:25 UTC (18 minutes ago) Visual Flight Rules
Wind Visibility Clouds
200° at 8 knots 10,000+ meters
  • Few at 1,800' AGL
  • Broken at 3,800' AGL
Temperatures Readings
Current 18°C / 64°F
Dewpoint 15°C / 59°F
Humidity 83%
Altimeter 30.15" Hg
Pressure 1021 hPa
Elevation 9
METAR EHAM 182325Z 20008KT 9999 FEW018 BKN038 18/15 Q1021 NOSIG
Observed Flight Rules
Aug-18 @ 23:25 UTC
(18 minutes ago)
VFR
Wind Visibility
200° at 8 knots 10,000+ meters
Clouds
  • Few at 1,800' AGL
  • Broken at 3,800' AGL
Temperature Dewpoint
18°C / 64°F 15°C / 59°F
Humidity Altimeter Pressure
83% 30.15" Hg 1021 hPa